sensor_id;sensor_type;location;lat;lon;timestamp;pressure;altitude;pressure_sealevel;temperature;humidity
46045;BME280;31781;54.094;13.428;2023-04-10T00:01:54;102843.97;;;4.20;71.11
46045;BME280;31781;54.094;13.428;2023-04-10T00:03:57;102840.41;;;4.20;71.42
46045;BME280;31781;54.094;13.428;2023-04-10T00:05:59;102836.13;;;4.17;71.84
46045;BME280;31781;54.094;13.428;2023-04-10T00:08:03;102837.22;;;4.15;71.58
46045;BME280;31781;54.094;13.428;2023-04-10T00:10:05;102848.97;;;4.14;71.70
46045;BME280;31781;54.094;13.428;2023-04-10T00:12:07;102842.72;;;4.13;72.19
46045;BME280;31781;54.094;13.428;2023-04-10T00:14:09;102850.81;;;4.13;71.90
46045;BME280;31781;54.094;13.428;2023-04-10T00:16:11;102850.91;;;4.12;72.57
46045;BME280;31781;54.094;13.428;2023-04-10T00:18:13;102849.94;;;4.13;72.35
46045;BME280;31781;54.094;13.428;2023-04-10T00:20:14;102850.81;;;4.13;72.03
46045;BME280;31781;54.094;13.428;2023-04-10T00:22:17;102843.59;;;4.14;72.33
46045;BME280;31781;54.094;13.428;2023-04-10T00:24:20;102846.28;;;4.14;72.29
46045;BME280;31781;54.094;13.428;2023-04-10T00:26:22;102835.50;;;4.14;71.83
46045;BME280;31781;54.094;13.428;2023-04-10T00:28:23;102846.28;;;4.14;71.93
46045;BME280;31781;54.094;13.428;2023-04-10T00:30:25;102831.09;;;4.13;71.86
46045;BME280;31781;54.094;13.428;2023-04-10T00:32:27;102832.91;;;4.12;71.33
46045;BME280;31781;54.094;13.428;2023-04-10T00:34:28;102838.41;;;4.11;71.64
46045;BME280;31781;54.094;13.428;2023-04-10T00:36:30;102829.59;;;4.09;71.75
46045;BME280;31781;54.094;13.428;2023-04-10T00:38:32;102823.44;;;4.07;71.03
46045;BME280;31781;54.094;13.428;2023-04-10T00:40:35;102830.69;;;4.06;71.71
46045;BME280;31781;54.094;13.428;2023-04-10T00:42:37;102823.69;;;4.04;71.88
46045;BME280;31781;54.094;13.428;2023-04-10T00:44:39;102822.97;;;4.02;71.86
46045;BME280;31781;54.094;13.428;2023-04-10T00:46:42;102822.09;;;4.01;71.27
46045;BME280;31781;54.094;13.428;2023-04-10T00:48:44;102822.19;;;4.00;71.79
46045;BME280;31781;54.094;13.428;2023-04-10T00:50:45;102829.41;;;3.99;71.83
46045;BME280;31781;54.094;13.428;2023-04-10T00:52:48;102825.91;;;3.99;71.73
46045;BME280;31781;54.094;13.428;2023-04-10T00:54:50;102825.91;;;3.99;71.76
46045;BME280;31781;54.094;13.428;2023-04-10T00:56:57;102823.06;;;4.00;71.46
46045;BME280;31781;54.094;13.428;2023-04-10T00:58:59;102812.53;;;3.97;71.58
46045;BME280;31781;54.094;13.428;2023-04-10T01:01:02;102810.69;;;3.98;70.87
46045;BME280;31781;54.094;13.428;2023-04-10T01:03:04;102811.81;;;3.95;70.80
46045;BME280;31781;54.094;13.428;2023-04-10T01:05:07;102809.09;;;3.95;71.81
46045;BME280;31781;54.094;13.428;2023-04-10T01:07:14;102808.34;;;3.93;71.40
46045;BME280;31781;54.094;13.428;2023-04-10T01:09:31;102812.00;;;3.92;70.94
46045;BME280;31781;54.094;13.428;2023-04-10T01:11:44;102808.59;;;3.90;71.31
46045;BME280;31781;54.094;13.428;2023-04-10T01:13:57;102813.25;;;3.88;70.64
46045;BME280;31781;54.094;13.428;2023-04-10T01:16:06;102813.34;;;3.86;70.66
46045;BME280;31781;54.094;13.428;2023-04-10T01:18:16;102812.59;;;3.84;71.07
46045;BME280;31781;54.094;13.428;2023-04-10T01:20:21;102816.38;;;3.82;71.38
46045;BME280;31781;54.094;13.428;2023-04-10T01:22:25;102812.94;;;3.80;71.55
46045;BME280;31781;54.094;13.428;2023-04-10T01:24:45;102809.25;;;3.81;70.48
46045;BME280;31781;54.094;13.428;2023-04-10T01:26:59;102802.41;;;3.77;71.07
46045;BME280;31781;54.094;13.428;2023-04-10T01:29:08;102801.66;;;3.75;70.99
46045;BME280;31781;54.094;13.428;2023-04-10T01:31:15;102802.84;;;3.71;70.69
46045;BME280;31781;54.094;13.428;2023-04-10T01:33:19;102804.91;;;3.67;70.79
46045;BME280;31781;54.094;13.428;2023-04-10T01:35:22;102803.31;;;3.65;71.60
46045;BME280;31781;54.094;13.428;2023-04-10T01:37:26;102804.38;;;3.62;70.62
46045;BME280;31781;54.094;13.428;2023-04-10T01:39:30;102806.34;;;3.60;71.43
46045;BME280;31781;54.094;13.428;2023-04-10T01:41:37;102792.25;;;3.57;70.51
46045;BME280;31781;54.094;13.428;2023-04-10T01:43:42;102793.34;;;3.54;70.79
46045;BME280;31781;54.094;13.428;2023-04-10T01:45:47;102797.97;;;3.52;70.24
46045;BME280;31781;54.094;13.428;2023-04-10T01:47:53;102797.34;;;3.49;70.36
46045;BME280;31781;54.094;13.428;2023-04-10T01:49:56;102801.13;;;3.46;71.06
46045;BME280;31781;54.094;13.428;2023-04-10T01:51:59;102792.44;;;3.42;71.10
46045;BME280;31781;54.094;13.428;2023-04-10T01:54:01;102796.31;;;3.38;70.95
46045;BME280;31781;54.094;13.428;2023-04-10T01:56:07;102796.63;;;3.34;71.11
46045;BME280;31781;54.094;13.428;2023-04-10T01:58:09;102799.34;;;3.34;71.38
46045;BME280;31781;54.094;13.428;2023-04-10T02:00:12;102795.16;;;3.30;71.04
46045;BME280;31781;54.094;13.428;2023-04-10T02:02:16;102795.28;;;3.28;71.50
46045;BME280;31781;54.094;13.428;2023-04-10T02:04:18;102792.69;;;3.27;71.48
46045;BME280;31781;54.094;13.428;2023-04-10T02:06:25;102795.47;;;3.25;71.06
46045;BME280;31781;54.094;13.428;2023-04-10T02:08:34;102788.50;;;3.23;71.02
46045;BME280;31781;54.094;13.428;2023-04-10T02:10:42;102789.59;;;3.20;71.00
46045;BME280;31781;54.094;13.428;2023-04-10T02:12:46;102786.25;;;3.17;72.06
46045;BME280;31781;54.094;13.428;2023-04-10T02:14:49;102789.19;;;3.14;71.90
46045;BME280;31781;54.094;13.428;2023-04-10T02:16:55;102794.66;;;3.12;71.77
46045;BME280;31781;54.094;13.428;2023-04-10T02:18:59;102791.09;;;3.12;72.11
46045;BME280;31781;54.094;13.428;2023-04-10T02:21:03;102793.91;;;3.10;72.19
46045;BME280;31781;54.094;13.428;2023-04-10T02:23:06;102790.38;;;3.10;72.18
46045;BME280;31781;54.094;13.428;2023-04-10T02:25:09;102782.41;;;3.08;71.63
46045;BME280;31781;54.094;13.428;2023-04-10T02:27:11;102779.84;;;3.07;72.20
46045;BME280;31781;54.094;13.428;2023-04-10T02:29:13;102787.91;;;3.07;72.07
46045;BME280;31781;54.094;13.428;2023-04-10T02:31:15;102776.38;;;3.05;72.05
46045;BME280;31781;54.094;13.428;2023-04-10T02:33:17;102784.44;;;3.05;72.04
46045;BME280;31781;54.094;13.428;2023-04-10T02:35:22;102780.91;;;3.04;72.17
46045;BME280;31781;54.094;13.428;2023-04-10T02:37:23;102775.66;;;3.03;72.25
46045;BME280;31781;54.094;13.428;2023-04-10T02:39:25;102773.06;;;3.01;72.39
46045;BME280;31781;54.094;13.428;2023-04-10T02:41:27;102774.88;;;3.01;72.30
46045;BME280;31781;54.094;13.428;2023-04-10T02:43:29;102772.41;;;2.98;72.94
46045;BME280;31781;54.094;13.428;2023-04-10T02:45:30;102770.81;;;2.95;72.86
46045;BME280;31781;54.094;13.428;2023-04-10T02:47:32;102776.28;;;2.93;72.11
46045;BME280;31781;54.094;13.428;2023-04-10T02:49:34;102775.56;;;2.91;72.43
46045;BME280;31781;54.094;13.428;2023-04-10T02:51:38;102776.63;;;2.89;72.28
46045;BME280;31781;54.094;13.428;2023-04-10T02:53:39;102773.19;;;2.87;72.17
46045;BME280;31781;54.094;13.428;2023-04-10T02:55:41;102779.66;;;2.84;72.48
46045;BME280;31781;54.094;13.428;2023-04-10T02:57:43;102774.38;;;2.83;72.55
46045;BME280;31781;54.094;13.428;2023-04-10T02:59:44;102776.31;;;2.81;72.49
46045;BME280;31781;54.094;13.428;2023-04-10T03:01:46;102782.66;;;2.80;72.43
46045;BME280;31781;54.094;13.428;2023-04-10T03:03:48;102773.75;;;2.79;72.95
46045;BME280;31781;54.094;13.428;2023-04-10T03:05:50;102784.50;;;2.79;72.26
46045;BME280;31781;54.094;13.428;2023-04-10T03:07:53;102780.06;;;2.78;72.47
46045;BME280;31781;54.094;13.428;2023-04-10T03:09:55;102772.97;;;2.77;73.36
46045;BME280;31781;54.094;13.428;2023-04-10T03:11:57;102779.34;;;2.76;72.50
46045;BME280;31781;54.094;13.428;2023-04-10T03:13:59;102772.16;;;2.77;73.31
46045;BME280;31781;54.094;13.428;2023-04-10T03:16:00;102772.97;;;2.77;72.76
46045;BME280;31781;54.094;13.428;2023-04-10T03:18:03;102774.84;;;2.77;73.25
46045;BME280;31781;54.094;13.428;2023-04-10T03:20:06;102777.28;;;2.80;73.44
46045;BME280;31781;54.094;13.428;2023-04-10T03:22:08;102777.16;;;2.81;73.16
46045;BME280;31781;54.094;13.428;2023-04-10T03:24:11;102786.00;;;2.83;73.17
46045;BME280;31781;54.094;13.428;2023-04-10T03:26:16;102775.25;;;2.83;72.88
46045;BME280;31781;54.094;13.428;2023-04-10T03:28:18;102770.72;;;2.84;73.24
46045;BME280;31781;54.094;13.428;2023-04-10T03:30:20;102770.72;;;2.84;73.49
46045;BME280;31781;54.094;13.428;2023-04-10T03:32:22;102768.91;;;2.84;73.14
46045;BME280;31781;54.094;13.428;2023-04-10T03:34:24;102764.38;;;2.85;73.87
46045;BME280;31781;54.094;13.428;2023-04-10T03:36:25;102757.16;;;2.85;73.54
46045;BME280;31781;54.094;13.428;2023-04-10T03:38:27;102759.84;;;2.85;73.48
46045;BME280;31781;54.094;13.428;2023-04-10T03:40:30;102764.28;;;2.86;73.03
46045;BME280;31781;54.094;13.428;2023-04-10T03:42:32;102762.44;;;2.87;72.83
46045;BME280;31781;54.094;13.428;2023-04-10T03:44:33;102762.44;;;2.87;72.57
46045;BME280;31781;54.094;13.428;2023-04-10T03:46:35;102762.53;;;2.85;72.62
46045;BME280;31781;54.094;13.428;2023-04-10T03:48:37;102766.22;;;2.84;72.98
46045;BME280;31781;54.094;13.428;2023-04-10T03:50:39;102759.97;;;2.84;72.17
46045;BME280;31781;54.094;13.428;2023-04-10T03:52:40;102759.13;;;2.83;72.67
46045;BME280;31781;54.094;13.428;2023-04-10T03:54:42;102759.22;;;2.82;72.50
46045;BME280;31781;54.094;13.428;2023-04-10T03:56:45;102751.28;;;2.80;72.36
46045;BME280;31781;54.094;13.428;2023-04-10T03:58:47;102752.25;;;2.79;72.96
46045;BME280;31781;54.094;13.428;2023-04-10T04:00:49;102752.25;;;2.79;72.95
46045;BME280;31781;54.094;13.428;2023-04-10T04:02:50;102751.38;;;2.79;72.95
46045;BME280;31781;54.094;13.428;2023-04-10T04:04:53;102749.56;;;2.79;72.94
46045;BME280;31781;54.094;13.428;2023-04-10T04:06:56;102746.88;;;2.79;72.24
46045;BME280;31781;54.094;13.428;2023-04-10T04:08:58;102746.97;;;2.78;72.02
46045;BME280;31781;54.094;13.428;2023-04-10T04:11:00;102747.09;;;2.76;72.22
46045;BME280;31781;54.094;13.428;2023-04-10T04:13:03;102745.47;;;2.74;71.83
46045;BME280;31781;54.094;13.428;2023-04-10T04:15:06;102743.00;;;2.71;71.90
46045;BME280;31781;54.094;13.428;2023-04-10T04:17:08;102746.78;;;2.68;72.13
46045;BME280;31781;54.094;13.428;2023-04-10T04:19:10;102742.47;;;2.66;71.80
46045;BME280;31781;54.094;13.428;2023-04-10T04:21:11;102746.22;;;2.63;72.50
46045;BME280;31781;54.094;13.428;2023-04-10T04:23:13;102750.63;;;2.64;71.75
46045;BME280;31781;54.094;13.428;2023-04-10T04:25:15;102747.09;;;2.64;72.49
46045;BME280;31781;54.094;13.428;2023-04-10T04:27:17;102739.03;;;2.64;72.09
46045;BME280;31781;54.094;13.428;2023-04-10T04:29:20;102741.72;;;2.64;71.84
46045;BME280;31781;54.094;13.428;2023-04-10T04:31:22;102741.84;;;2.62;71.82
46045;BME280;31781;54.094;13.428;2023-04-10T04:33:24;102734.75;;;2.61;72.64
46045;BME280;31781;54.094;13.428;2023-04-10T04:35:26;102740.97;;;2.62;72.20
46045;BME280;31781;54.094;13.428;2023-04-10T04:37:28;102738.28;;;2.62;72.93
46045;BME280;31781;54.094;13.428;2023-04-10T04:39:30;102732.06;;;2.61;72.95
46045;BME280;31781;54.094;13.428;2023-04-10T04:41:32;102732.06;;;2.61;73.10
46045;BME280;31781;54.094;13.428;2023-04-10T04:43:34;102734.75;;;2.61;72.88
46045;BME280;31781;54.094;13.428;2023-04-10T04:45:37;102744.53;;;2.62;73.40
46045;BME280;31781;54.094;13.428;2023-04-10T04:47:38;102740.00;;;2.63;73.49
46045;BME280;31781;54.094;13.428;2023-04-10T04:49:40;102739.03;;;2.64;73.11
46045;BME280;31781;54.094;13.428;2023-04-10T04:51:42;102747.97;;;2.64;73.60
46045;BME280;31781;54.094;13.428;2023-04-10T04:53:46;102741.63;;;2.65;74.32
46045;BME280;31781;54.094;13.428;2023-04-10T04:55:47;102742.47;;;2.66;74.38
46045;BME280;31781;54.094;13.428;2023-04-10T04:57:49;102740.53;;;2.68;73.86
46045;BME280;31781;54.094;13.428;2023-04-10T04:59:51;102740.31;;;2.71;74.42
46045;BME280;31781;54.094;13.428;2023-04-10T05:01:55;102741.94;;;2.73;74.97
46045;BME280;31781;54.094;13.428;2023-04-10T05:03:57;102744.28;;;2.78;74.72
46045;BME280;31781;54.094;13.428;2023-04-10T05:06:03;102742.22;;;2.81;75.29
46045;BME280;31781;54.094;13.428;2023-04-10T05:08:05;102750.09;;;2.84;74.78
46045;BME280;31781;54.094;13.428;2023-04-10T05:10:08;102749.00;;;2.87;75.40
46045;BME280;31781;54.094;13.428;2023-04-10T05:12:14;102746.00;;;2.91;75.11
46045;BME280;31781;54.094;13.428;2023-04-10T05:14:19;102742.94;;;2.96;75.21
46045;BME280;31781;54.094;13.428;2023-04-10T05:16:21;102745.44;;;2.99;74.99
46045;BME280;31781;54.094;13.428;2023-04-10T05:18:24;102746.81;;;3.05;75.85
46045;BME280;31781;54.094;13.428;2023-04-10T05:20:26;102741.97;;;3.10;75.90
46045;BME280;31781;54.094;13.428;2023-04-10T05:22:28;102740.78;;;3.14;76.14
46045;BME280;31781;54.094;13.428;2023-04-10T05:24:30;102748.47;;;3.18;75.81
46045;BME280;31781;54.094;13.428;2023-04-10T05:26:34;102743.63;;;3.23;76.13
46045;BME280;31781;54.094;13.428;2023-04-10T05:28:36;102741.56;;;3.27;75.93
46045;BME280;31781;54.094;13.428;2023-04-10T05:30:37;102744.91;;;3.30;76.29
46045;BME280;31781;54.094;13.428;2023-04-10T05:32:40;102747.25;;;3.35;76.50
46045;BME280;31781;54.094;13.428;2023-04-10T05:34:43;102750.44;;;3.40;76.42
46045;BME280;31781;54.094;13.428;2023-04-10T05:36:45;102747.31;;;3.46;76.06
46045;BME280;31781;54.094;13.428;2023-04-10T05:38:46;102745.13;;;3.51;77.07
46045;BME280;31781;54.094;13.428;2023-04-10T05:40:48;102746.50;;;3.57;76.65
46045;BME280;31781;54.094;13.428;2023-04-10T05:42:49;102739.78;;;3.62;76.72
46045;BME280;31781;54.094;13.428;2023-04-10T05:44:51;102744.59;;;3.70;77.29
46045;BME280;31781;54.094;13.428;2023-04-10T05:46:53;102744.00;;;3.77;76.73
46045;BME280;31781;54.094;13.428;2023-04-10T05:48:55;102742.56;;;3.84;77.06
46045;BME280;31781;54.094;13.428;2023-04-10T05:50:59;102741.25;;;3.90;77.84
46045;BME280;31781;54.094;13.428;2023-04-10T05:53:00;102745.19;;;3.97;77.35
46045;BME280;31781;54.094;13.428;2023-04-10T05:55:06;102753.56;;;4.05;77.63
46045;BME280;31781;54.094;13.428;2023-04-10T05:57:08;102745.75;;;4.13;77.96
46045;BME280;31781;54.094;13.428;2023-04-10T05:59:10;102743.28;;;4.21;77.73
46045;BME280;31781;54.094;13.428;2023-04-10T06:01:12;102745.38;;;4.29;78.02
46045;BME280;31781;54.094;13.428;2023-04-10T06:03:14;102742.09;;;4.36;77.97
46045;BME280;31781;54.094;13.428;2023-04-10T06:05:16;102743.97;;;4.47;78.19
46045;BME280;31781;54.094;13.428;2023-04-10T06:07:20;102735.03;;;4.58;78.12
46045;BME280;31781;54.094;13.428;2023-04-10T06:09:25;102741.41;;;4.68;78.35
46045;BME280;31781;54.094;13.428;2023-04-10T06:11:27;102740.66;;;4.77;78.47
46045;BME280;31781;54.094;13.428;2023-04-10T06:13:29;102737.22;;;4.86;79.13
46045;BME280;31781;54.094;13.428;2023-04-10T06:15:31;102729.13;;;4.97;78.76
46045;BME280;31781;54.094;13.428;2023-04-10T06:17:32;102729.13;;;5.08;79.34
46045;BME280;31781;54.094;13.428;2023-04-10T06:19:34;102730.94;;;5.19;79.53
46045;BME280;31781;54.094;13.428;2023-04-10T06:21:35;102735.44;;;5.29;79.11
46045;BME280;31781;54.094;13.428;2023-04-10T06:23:39;102738.97;;;5.41;78.92
46045;BME280;31781;54.094;13.428;2023-04-10T06:25:40;102737.22;;;5.51;79.08
46045;BME280;31781;54.094;13.428;2023-04-10T06:27:42;102731.78;;;5.62;79.52
46045;BME280;31781;54.094;13.428;2023-04-10T06:29:44;102736.41;;;5.71;78.91
46045;BME280;31781;54.094;13.428;2023-04-10T06:31:46;102740.91;;;5.82;78.89
46045;BME280;31781;54.094;13.428;2023-04-10T06:33:48;102738.06;;;5.95;78.84
46045;BME280;31781;54.094;13.428;2023-04-10T06:35:50;102739.88;;;6.05;78.84
46045;BME280;31781;54.094;13.428;2023-04-10T06:37:52;102739.19;;;6.13;78.49
46045;BME280;31781;54.094;13.428;2023-04-10T06:40:02;102748.22;;;6.23;78.07
46045;BME280;31781;54.094;13.428;2023-04-10T06:42:04;102744.00;;;6.30;78.78
46045;BME280;31781;54.094;13.428;2023-04-10T06:44:06;102738.78;;;6.38;78.47
46045;BME280;31781;54.094;13.428;2023-04-10T06:46:08;102734.56;;;6.45;77.34
46045;BME280;31781;54.094;13.428;2023-04-10T06:48:10;102735.63;;;6.54;78.06
46045;BME280;31781;54.094;13.428;2023-04-10T06:50:12;102724.84;;;6.63;77.71
46045;BME280;31781;54.094;13.428;2023-04-10T06:52:14;102732.97;;;6.73;77.05
46045;BME280;31781;54.094;13.428;2023-04-10T06:54:15;102725.03;;;6.81;77.62
46045;BME280;31781;54.094;13.428;2023-04-10T06:56:18;102725.94;;;6.91;77.16
46045;BME280;31781;54.094;13.428;2023-04-10T06:58:20;102727.69;;;7.02;77.34
46045;BME280;31781;54.094;13.428;2023-04-10T07:00:22;102719.47;;;7.13;76.56
46045;BME280;31781;54.094;13.428;2023-04-10T07:02:24;102719.59;;;7.21;76.41
46045;BME280;31781;54.094;13.428;2023-04-10T07:04:26;102716.94;;;7.30;77.35
46045;BME280;31781;54.094;13.428;2023-04-10T07:06:28;102721.25;;;7.43;75.89
46045;BME280;31781;54.094;13.428;2023-04-10T07:08:30;102720.09;;;7.55;75.71
46045;BME280;31781;54.094;13.428;2023-04-10T07:10:32;102727.09;;;7.67;75.61
46045;BME280;31781;54.094;13.428;2023-04-10T07:12:35;102717.84;;;7.79;75.31
46045;BME280;31781;54.094;13.428;2023-04-10T07:14:37;102716.81;;;7.90;75.00
46045;BME280;31781;54.094;13.428;2023-04-10T07:16:38;102717.53;;;8.01;73.79
46045;BME280;31781;54.094;13.428;2023-04-10T07:18:40;102719.06;;;8.13;73.56
46045;BME280;31781;54.094;13.428;2023-04-10T07:20:42;102717.91;;;8.25;73.86
46045;BME280;31781;54.094;13.428;2023-04-10T07:22:44;102716.78;;;8.38;72.62
46045;BME280;31781;54.094;13.428;2023-04-10T07:24:46;102713.03;;;8.48;73.04
46045;BME280;31781;54.094;13.428;2023-04-10T07:26:48;102713.72;;;8.60;72.00
46045;BME280;31781;54.094;13.428;2023-04-10T07:28:51;102711.81;;;8.70;73.19
46045;BME280;31781;54.094;13.428;2023-04-10T07:30:53;102716.38;;;8.79;71.56
46045;BME280;31781;54.094;13.428;2023-04-10T07:32:55;102716.63;;;8.86;71.04
46045;BME280;31781;54.094;13.428;2023-04-10T07:34:57;102704.28;;;8.91;70.73
46045;BME280;31781;54.094;13.428;2023-04-10T07:36:59;102709.81;;;8.99;71.18
46045;BME280;31781;54.094;13.428;2023-04-10T07:39:01;102700.22;;;9.05;70.29
46045;BME280;31781;54.094;13.428;2023-04-10T07:41:03;102709.47;;;9.12;69.28
46045;BME280;31781;54.094;13.428;2023-04-10T07:43:05;102709.09;;;9.24;69.15
46045;BME280;31781;54.094;13.428;2023-04-10T07:45:10;102711.03;;;9.32;69.48
46045;BME280;31781;54.094;13.428;2023-04-10T07:47:13;102714.72;;;9.41;68.56
46045;BME280;31781;54.094;13.428;2023-04-10T07:49:14;102700.91;;;9.52;68.36
46045;BME280;31781;54.094;13.428;2023-04-10T07:51:16;102703.41;;;9.63;67.53
46045;BME280;31781;54.094;13.428;2023-04-10T07:53:18;102695.69;;;9.76;67.80
46045;BME280;31781;54.094;13.428;2023-04-10T07:55:20;102698.88;;;9.89;67.87
46045;BME280;31781;54.094;13.428;2023-04-10T07:57:22;102699.16;;;10.04;67.25
46045;BME280;31781;54.094;13.428;2023-04-10T07:59:23;102702.03;;;10.20;67.37
46045;BME280;31781;54.094;13.428;2023-04-10T08:01:29;102695.00;;;10.35;66.96
46045;BME280;31781;54.094;13.428;2023-04-10T08:03:36;102684.38;;;10.50;66.31
46045;BME280;31781;54.094;13.428;2023-04-10T08:05:39;102675.63;;;10.64;65.32
46045;BME280;31781;54.094;13.428;2023-04-10T08:07:40;102676.69;;;10.79;64.76
46045;BME280;31781;54.094;13.428;2023-04-10T08:09:42;102675.22;;;10.93;64.70
46045;BME280;31781;54.094;13.428;2023-04-10T08:11:44;102666.56;;;11.05;63.23
46045;BME280;31781;54.094;13.428;2023-04-10T08:13:45;102668.84;;;11.18;62.59
46045;BME280;31781;54.094;13.428;2023-04-10T08:15:48;102664.59;;;11.32;62.23
46045;BME280;31781;54.094;13.428;2023-04-10T08:17:51;102663.28;;;11.44;61.79
46045;BME280;31781;54.094;13.428;2023-04-10T08:19:52;102665.31;;;11.58;62.02
46045;BME280;31781;54.094;13.428;2023-04-10T08:21:54;102659.22;;;11.72;60.91
46045;BME280;31781;54.094;13.428;2023-04-10T08:23:57;102661.25;;;11.86;59.60
46045;BME280;31781;54.094;13.428;2023-04-10T08:25:59;102648.84;;;12.00;59.75
46045;BME280;31781;54.094;13.428;2023-04-10T08:28:01;102651.22;;;12.11;59.79
46045;BME280;31781;54.094;13.428;2023-04-10T08:30:04;102647.94;;;12.24;60.07
46045;BME280;31781;54.094;13.428;2023-04-10T08:32:07;102648.25;;;12.37;59.84
46045;BME280;31781;54.094;13.428;2023-04-10T08:34:12;102646.50;;;12.52;58.73
46045;BME280;31781;54.094;13.428;2023-04-10T08:36:15;102642.84;;;12.67;59.30
46045;BME280;31781;54.094;13.428;2023-04-10T08:38:20;102642.63;;;12.85;58.71
46045;BME280;31781;54.094;13.428;2023-04-10T08:40:22;102639.97;;;13.00;58.75
46045;BME280;31781;54.094;13.428;2023-04-10T08:42:24;102631.69;;;13.16;58.99
46045;BME280;31781;54.094;13.428;2023-04-10T08:44:26;102635.19;;;13.33;57.73
46045;BME280;31781;54.094;13.428;2023-04-10T08:46:28;102626.03;;;13.48;57.76
46045;BME280;31781;54.094;13.428;2023-04-10T08:48:37;102627.75;;;13.64;58.21
46045;BME280;31781;54.094;13.428;2023-04-10T08:50:44;102624.25;;;13.78;59.02
46045;BME280;31781;54.094;13.428;2023-04-10T08:52:50;102621.91;;;13.90;57.06
46045;BME280;31781;54.094;13.428;2023-04-10T08:54:53;102629.66;;;14.01;56.38
46045;BME280;31781;54.094;13.428;2023-04-10T08:56:55;102621.00;;;14.12;56.41
46045;BME280;31781;54.094;13.428;2023-04-10T08:58:58;102612.31;;;14.23;56.28
46045;BME280;31781;54.094;13.428;2023-04-10T09:01:00;102618.03;;;14.36;55.73
46045;BME280;31781;54.094;13.428;2023-04-10T09:03:03;102611.88;;;14.49;55.58
46045;BME280;31781;54.094;13.428;2023-04-10T09:05:08;102601.13;;;14.62;54.53
46045;BME280;31781;54.094;13.428;2023-04-10T09:07:12;102599.22;;;14.77;55.13
46045;BME280;31781;54.094;13.428;2023-04-10T09:09:14;102602.78;;;14.92;55.32
46045;BME280;31781;54.094;13.428;2023-04-10T09:11:15;102600.84;;;15.07;54.19
46045;BME280;31781;54.094;13.428;2023-04-10T09:13:34;102599.16;;;15.28;57.07
46045;BME280;31781;54.094;13.428;2023-04-10T09:15:54;102602.28;;;15.46;56.95
46045;BME280;31781;54.094;13.428;2023-04-10T09:17:58;102602.47;;;15.59;52.86
46045;BME280;31781;54.094;13.428;2023-04-10T09:20:00;102592.44;;;15.73;53.01
46045;BME280;31781;54.094;13.428;2023-04-10T09:22:02;102593.22;;;15.88;52.77
46045;BME280;31781;54.094;13.428;2023-04-10T09:24:05;102587.22;;;16.05;52.68
46045;BME280;31781;54.094;13.428;2023-04-10T09:26:22;102584.38;;;16.27;54.97
46045;BME280;31781;54.094;13.428;2023-04-10T09:28:24;102586.16;;;16.41;52.12
46045;BME280;31781;54.094;13.428;2023-04-10T09:30:32;102574.00;;;16.57;53.74
46045;BME280;31781;54.094;13.428;2023-04-10T09:32:39;102574.53;;;16.73;52.18
46045;BME280;31781;54.094;13.428;2023-04-10T09:34:51;102569.50;;;16.90;53.13
46045;BME280;31781;54.094;13.428;2023-04-10T09:36:55;102569.13;;;16.99;49.45
46045;BME280;31781;54.094;13.428;2023-04-10T09:38:57;102566.38;;;17.13;49.93
46045;BME280;31781;54.094;13.428;2023-04-10T09:41:07;102565.34;;;17.27;52.13
46045;BME280;31781;54.094;13.428;2023-04-10T09:43:19;102561.38;;;17.36;52.68
46045;BME280;31781;54.094;13.428;2023-04-10T09:45:22;102553.97;;;17.43;48.85
46045;BME280;31781;54.094;13.428;2023-04-10T09:47:24;102549.91;;;17.52;48.66
46045;BME280;31781;54.094;13.428;2023-04-10T09:49:26;102555.06;;;17.62;48.41
46045;BME280;31781;54.094;13.428;2023-04-10T09:51:29;102540.84;;;17.71;47.67
46045;BME280;31781;54.094;13.428;2023-04-10T09:53:47;102545.94;;;17.87;51.39
46045;BME280;31781;54.094;13.428;2023-04-10T09:55:49;102541.69;;;17.98;47.52
46045;BME280;31781;54.094;13.428;2023-04-10T09:57:54;102533.59;;;18.10;49.31
46045;BME280;31781;54.094;13.428;2023-04-10T09:59:57;102533.56;;;18.23;48.72
46045;BME280;31781;54.094;13.428;2023-04-10T10:01:59;102527.19;;;18.35;49.33
46045;BME280;31781;54.094;13.428;2023-04-10T10:04:02;102522.03;;;18.45;47.86
46045;BME280;31781;54.094;13.428;2023-04-10T10:06:05;102519.47;;;18.57;48.03
46045;BME280;31781;54.094;13.428;2023-04-10T10:08:09;102519.84;;;18.67;47.92
46045;BME280;31781;54.094;13.428;2023-04-10T10:10:11;102512.19;;;18.76;47.23
46045;BME280;31781;54.094;13.428;2023-04-10T10:12:16;102512.78;;;18.84;47.76
46045;BME280;31781;54.094;13.428;2023-04-10T10:14:22;102504.00;;;18.94;47.90
46045;BME280;31781;54.094;13.428;2023-04-10T10:16:31;102508.59;;;19.07;48.35
46045;BME280;31781;54.094;13.428;2023-04-10T10:18:39;102499.81;;;19.16;47.81
46045;BME280;31781;54.094;13.428;2023-04-10T10:20:44;102502.72;;;19.28;46.16
46045;BME280;31781;54.094;13.428;2023-04-10T10:22:49;102491.16;;;19.37;45.88
46045;BME280;31781;54.094;13.428;2023-04-10T10:24:51;102491.75;;;19.46;46.46
46045;BME280;31781;54.094;13.428;2023-04-10T10:26:55;102490.19;;;19.57;46.71
46045;BME280;31781;54.094;13.428;2023-04-10T10:29:02;102485.63;;;19.69;46.46
46045;BME280;31781;54.094;13.428;2023-04-10T10:31:06;102483.16;;;19.79;46.68
46045;BME280;31781;54.094;13.428;2023-04-10T10:33:10;102482.63;;;19.88;45.64
46045;BME280;31781;54.094;13.428;2023-04-10T10:35:13;102481.47;;;19.96;44.98
46045;BME280;31781;54.094;13.428;2023-04-10T10:37:16;102471.84;;;20.05;45.34
46045;BME280;31781;54.094;13.428;2023-04-10T10:39:28;102479.94;;;20.18;47.55
46045;BME280;31781;54.094;13.428;2023-04-10T10:41:39;102470.50;;;20.26;46.36
46045;BME280;31781;54.094;13.428;2023-04-10T10:43:49;102467.47;;;20.34;46.72